createdAt,value
2018-10-21T00:26:10.135Z,25.97
2018-10-21T00:31:13.691Z,24.40
2018-10-21T00:36:17.452Z,26.47
2018-10-21T00:41:20.956Z,27.03
2018-10-21T00:46:24.499Z,24.30
2018-10-21T00:51:27.983Z,22.47
2018-10-21T00:56:31.492Z,29.00
2018-10-21T01:01:34.962Z,27.90
2018-10-21T03:33:10.599Z,49.65
2018-10-21T03:38:13.959Z,53.50
2018-10-21T03:43:18.709Z,53.27
2018-10-21T03:48:22.167Z,53.33
2018-10-21T03:53:25.841Z,53.60
2018-10-21T03:58:29.342Z,53.87
2018-10-21T04:03:32.854Z,55.17
2018-10-21T04:08:36.299Z,54.77
2018-10-21T04:13:39.901Z,55.80
2018-10-21T04:18:43.427Z,47.93
2018-10-21T04:23:46.880Z,53.67
2018-10-21T04:28:50.385Z,48.73
2018-10-21T04:33:53.953Z,53.40
2018-10-21T04:40:16.470Z,52.83
2018-10-21T04:45:21.234Z,49.07
2018-10-21T04:50:24.695Z,52.33
2018-10-21T04:55:28.100Z,51.43
2018-10-21T05:00:31.659Z,49.00
2018-10-21T05:05:35.351Z,46.87
2018-10-21T05:10:39.399Z,53.10
2018-10-21T05:15:42.820Z,47.13
2018-10-21T05:20:46.293Z,48.00
2018-10-21T05:25:49.988Z,47.80
2018-10-21T05:30:53.512Z,52.67
2018-10-21T05:35:57.092Z,50.63
2018-10-21T05:41:00.602Z,47.23
2018-10-21T05:46:04.564Z,50.53
2018-10-21T05:51:07.992Z,52.80
2018-10-21T05:56:11.486Z,53.77
2018-10-21T06:01:14.967Z,49.37
2018-10-21T06:06:18.484Z,60.37
2018-10-21T06:11:22.383Z,57.53
2018-10-21T06:16:26.821Z,56.73
2018-10-21T06:21:30.795Z,53.80
2018-10-21T06:26:34.429Z,57.17
2018-10-21T06:31:37.905Z,61.27
2018-10-21T06:36:41.649Z,67.30
2018-10-21T06:41:45.074Z,68.77
2018-10-21T06:46:48.625Z,67.80
2018-10-21T06:51:52.316Z,68.77
2018-10-21T06:56:55.918Z,71.67
2018-10-21T07:01:59.576Z,72.67
2018-10-21T07:07:03.328Z,72.67
2018-10-21T07:12:07.810Z,70.50
2018-10-21T07:17:11.329Z,74.90
2018-10-21T07:22:14.900Z,79.70
2018-10-21T07:27:18.398Z,79.23
2018-10-21T07:32:21.810Z,70.50
2018-10-21T07:37:25.590Z,71.10
2018-10-21T07:42:29.057Z,68.57
2018-10-21T07:47:32.699Z,73.17
2018-10-21T07:52:36.208Z,74.70
2018-10-21T07:57:39.828Z,71.53
2018-10-21T08:02:43.340Z,75.67
2018-10-21T08:33:16.348Z,65.27
2018-10-21T08:38:19.872Z,61.33
2018-10-21T08:43:23.507Z,61.43
2018-10-21T08:48:27.042Z,63.83
2018-10-21T08:53:30.845Z,65.17
2018-10-21T08:58:34.439Z,68.47
2018-10-21T09:03:37.975Z,68.87
2018-10-21T09:08:41.484Z,68.07
2018-10-21T09:13:44.978Z,70.93
2018-10-21T09:18:48.452Z,73.77
2018-10-21T09:23:52.115Z,69.40
2018-10-21T09:28:55.724Z,72.27
2018-10-21T09:34:14.258Z,78.03
2018-10-21T09:39:17.816Z,73.20
2018-10-21T09:44:21.377Z,70.87
2018-10-21T09:49:25.921Z,66.50
2018-10-21T09:54:29.420Z,66.87
2018-10-21T09:59:33.158Z,68.17
2018-10-21T10:04:36.695Z,68.63
2018-10-21T10:09:40.298Z,66.27
2018-10-21T10:14:44.331Z,61.20
2018-10-21T10:19:47.929Z,62.50
2018-10-21T10:24:51.469Z,59.63
2018-10-21T10:29:55.084Z,61.77
2018-10-21T10:34:58.571Z,59.37
2018-10-21T10:40:02.183Z,62.13
2018-10-21T10:45:07.836Z,59.60
2018-10-21T10:50:11.703Z,63.10
2018-10-21T10:55:15.446Z,59.00
2018-10-21T11:00:18.911Z,54.90
2018-10-21T11:05:22.512Z,54.83
2018-10-21T11:10:25.986Z,55.63
2018-10-21T11:15:29.786Z,54.73
2018-10-21T11:20:33.490Z,56.23
2018-10-21T11:25:37.046Z,54.03
2018-10-21T11:30:40.603Z,53.43
2018-10-21T11:35:44.089Z,53.47
2018-10-21T11:40:47.616Z,48.97
2018-10-21T11:45:51.258Z,49.87
2018-10-21T11:50:54.700Z,49.30
2018-10-21T11:55:58.149Z,55.60
2018-10-21T12:01:01.717Z,48.63
2018-10-21T12:06:05.829Z,45.40
2018-10-21T12:11:09.388Z,42.37
2018-10-21T12:16:12.960Z,40.17
2018-10-21T12:21:16.516Z,40.27
2018-10-21T12:26:19.956Z,35.37
2018-10-21T12:31:23.463Z,32.03
2018-10-21T12:36:26.993Z,32.13
2018-10-21T12:41:30.535Z,30.40
2018-10-21T12:46:34.101Z,28.23
2018-10-21T12:51:37.663Z,27.47
2018-10-21T12:56:41.274Z,28.77
2018-10-21T13:01:44.846Z,25.50
2018-10-21T13:06:48.334Z,25.37
2018-10-21T13:11:51.792Z,27.23
2018-10-21T13:16:55.266Z,28.77
2018-10-21T13:21:58.778Z,28.33
2018-10-21T13:27:02.314Z,31.37
2018-10-21T13:32:06.935Z,23.33
2018-10-21T13:37:10.461Z,26.93
2018-10-21T13:42:13.940Z,32.23
2018-10-21T13:47:17.492Z,25.57
2018-10-21T13:52:20.993Z,26.17
2018-10-21T13:57:24.447Z,26.40
2018-10-21T14:02:28.893Z,28.20
2018-10-21T14:07:32.521Z,28.20
2018-10-21T14:12:36.032Z,25.27
2018-10-21T14:17:39.535Z,22.93
2018-10-21T14:22:43.276Z,21.73
2018-10-21T14:27:46.779Z,22.67
2018-10-21T14:32:50.355Z,22.30
2018-10-21T14:37:54.242Z,22.03
2018-10-21T14:42:57.738Z,21.97
2018-10-21T14:48:01.249Z,21.47
2018-10-21T14:53:05.141Z,24.60
2018-10-21T14:58:08.680Z,25.47
2018-10-21T15:03:12.224Z,20.93
2018-10-21T15:08:16.034Z,20.97
2018-10-21T15:13:19.677Z,24.33
2018-10-21T15:18:23.185Z,20.80
2018-10-21T15:23:26.811Z,21.33
2018-10-21T15:28:30.295Z,22.43
2018-10-21T15:33:33.977Z,20.73
2018-10-21T15:38:37.511Z,18.27
2018-10-21T15:43:41.609Z,18.33
2018-10-21T15:48:45.228Z,24.50
2018-10-21T15:53:48.786Z,24.53
2018-10-21T15:58:52.359Z,18.87
2018-10-21T16:03:56.067Z,23.20
2018-10-21T16:08:59.558Z,21.02
2018-10-21T16:14:03.387Z,19.40
2018-10-21T16:19:06.924Z,19.63
2018-10-21T16:24:10.440Z,24.00
2018-10-21T16:29:14.339Z,22.40
2018-10-21T16:34:18.979Z,23.13
2018-10-21T16:39:22.382Z,26.07
2018-10-21T16:44:25.967Z,24.13
2018-10-21T16:49:29.703Z,24.77
2018-10-21T16:54:33.306Z,25.70
2018-10-21T16:59:37.475Z,29.43
2018-10-21T17:04:41.031Z,26.17
2018-10-21T17:09:45.007Z,26.30
2018-10-21T17:14:48.669Z,29.80
2018-10-21T17:19:52.273Z,27.73
2018-10-21T17:24:55.820Z,31.47
2018-10-21T17:29:59.303Z,29.23
2018-10-21T17:35:02.873Z,28.97
2018-10-21T17:40:10.536Z,25.63
2018-10-21T17:45:14.737Z,29.87
2018-10-21T17:50:18.307Z,26.13
2018-10-21T17:55:21.844Z,28.97
2018-10-21T18:00:25.516Z,27.40
2018-10-21T18:05:29.077Z,28.77
2018-10-21T18:10:32.526Z,29.40
2018-10-21T18:15:36.036Z,26.97
2018-10-21T18:20:39.557Z,28.17
2018-10-21T18:25:43.575Z,29.90
2018-10-21T18:30:47.403Z,32.00
2018-10-21T18:35:50.928Z,30.50
2018-10-21T18:40:54.592Z,28.33
2018-10-21T18:45:58.198Z,25.43
2018-10-21T18:51:01.849Z,27.93
2018-10-21T18:56:05.666Z,27.40
2018-10-21T19:01:09.176Z,26.73
2018-10-21T19:06:12.675Z,26.77
2018-10-21T19:11:16.382Z,27.67
2018-10-21T19:16:19.838Z,28.70
2018-10-21T19:21:23.351Z,26.43
2018-10-21T19:26:26.848Z,25.73
2018-10-21T19:31:30.281Z,25.87
2018-10-21T19:36:33.735Z,24.63
2018-10-21T19:41:37.191Z,24.73
2018-10-21T19:46:40.743Z,22.93
2018-10-21T19:51:44.608Z,22.07
2018-10-21T19:56:48.145Z,21.10
2018-10-21T20:01:51.640Z,18.53
2018-10-21T20:06:55.152Z,19.90
2018-10-21T20:11:58.719Z,21.93
2018-10-21T20:17:02.245Z,19.57
2018-10-21T20:22:11.525Z,19.50
2018-10-21T20:27:14.971Z,20.87
2018-10-21T20:32:18.388Z,21.77
2018-10-21T20:37:22.413Z,21.83
2018-10-21T20:42:25.945Z,17.37
2018-10-21T20:47:29.508Z,21.00
2018-10-21T20:52:33.037Z,20.23
2018-10-21T20:57:36.608Z,20.53
2018-10-21T21:02:40.123Z,21.73
2018-10-21T21:07:43.620Z,21.17
2018-10-21T21:12:47.224Z,24.20
2018-10-21T21:17:50.754Z,22.27
2018-10-21T21:22:54.641Z,21.67
2018-10-21T21:27:58.236Z,21.40
2018-10-21T21:33:01.683Z,23.83
2018-10-21T21:38:06.141Z,24.70
2018-10-21T21:43:09.628Z,24.07
2018-10-21T21:48:13.216Z,24.20
2018-10-21T21:53:16.618Z,23.70
2018-10-21T21:58:20.257Z,27.15
2018-10-21T22:03:23.664Z,25.43
2018-10-21T22:08:27.108Z,27.57
2018-10-21T22:13:30.571Z,29.57
2018-10-21T22:18:34.391Z,31.60
2018-10-21T22:23:37.855Z,29.07
2018-10-21T22:28:41.408Z,36.50
2018-10-21T22:33:44.956Z,29.63
2018-10-21T22:38:48.429Z,27.50
2018-10-21T22:43:52.083Z,33.60
2018-10-21T22:48:55.588Z,27.03
2018-10-21T22:53:59.072Z,26.77
2018-10-21T22:59:02.549Z,31.30
2018-10-21T23:04:06.038Z,27.73
2018-10-21T23:09:10.680Z,31.30
2018-10-21T23:14:14.143Z,35.43
2018-10-21T23:19:37.633Z,30.73
2018-10-21T23:24:41.480Z,33.90
2018-10-21T23:29:45.133Z,32.90
2018-10-21T23:34:48.616Z,35.33
2018-10-21T23:39:52.339Z,31.00
2018-10-21T23:44:55.745Z,30.17
2018-10-21T23:49:59.221Z,37.17
2018-10-21T23:55:02.780Z,32.40
